Time;durP1;ratioP1;P1;durP2;ratioP2;P2;SDS_P1;SDS_P2;PMS_P1;PMS_P2;Temp;Humidity;BMP_temperature;BMP_pressure;BME280_temperature;BME280_humidity;BME280_pressure;Samples;Min_cycle;Max_cycle;Signal;HPM_P1;HPM_P2
2021/11/23 00:01:39;;;;;;;88.22;50.25;;;;;;;6.62;100.00;100890.78;5034326;28;20481;-70
2021/11/23 00:04:04;;;;;;;88.43;50.25;;;;;;;6.61;100.00;100890.91;5033005;28;20021;-69
2021/11/23 00:06:33;;;;;;;91.70;48.30;;;;;;;6.62;100.00;100898.78;5045915;28;20021;-68
2021/11/23 00:08:59;;;;;;;89.43;50.13;;;;;;;6.59;100.00;100892.81;5043714;28;20567;-68
2021/11/23 00:11:25;;;;;;;90.68;50.22;;;;;;;6.61;100.00;100901.56;5040265;28;20124;-69
2021/11/23 00:13:50;;;;;;;92.93;50.65;;;;;;;6.61;100.00;100909.56;5039889;28;20056;-69
2021/11/23 00:16:17;;;;;;;92.90;50.95;;;;;;;6.59;100.00;100907.00;5042432;28;20087;-69
2021/11/23 00:18:42;;;;;;;91.75;48.75;;;;;;;6.57;100.00;100905.34;5044335;28;20029;-69
2021/11/23 00:21:08;;;;;;;89.55;49.97;;;;;;;6.61;100.00;100905.06;5041637;28;20029;-69
2021/11/23 00:23:33;;;;;;;87.55;49.72;;;;;;;6.58;100.00;100904.44;5050489;28;20032;-69
2021/11/23 00:25:59;;;;;;;89.15;49.88;;;;;;;6.53;100.00;100910.03;5016808;28;20033;-69
2021/11/23 00:28:25;;;;;;;90.03;47.22;;;;;;;6.59;100.00;100923.00;5040167;28;20040;-69
2021/11/23 00:30:50;;;;;;;84.38;46.67;;;;;;;6.57;100.00;100922.22;5034465;28;20060;-69
2021/11/23 00:33:16;;;;;;;89.60;49.67;;;;;;;6.57;100.00;100922.22;5039523;28;20025;-69
2021/11/23 00:35:43;;;;;;;84.25;47.28;;;;;;;6.56;100.00;100924.97;5039783;28;20040;-70
2021/11/23 00:38:09;;;;;;;82.88;47.38;;;;;;;6.55;100.00;100925.94;5017151;28;20082;-70
2021/11/23 00:40:34;;;;;;;88.20;47.80;;;;;;;6.43;100.00;100913.34;5048945;28;20029;-69
2021/11/23 00:43:04;;;;;;;89.20;47.22;;;;;;;6.44;100.00;100929.25;5044633;28;20041;-69
2021/11/23 00:45:31;;;;;;;82.70;47.08;;;;;;;6.45;100.00;100938.94;5038811;28;20071;-69
2021/11/23 00:47:57;;;;;;;86.30;46.97;;;;;;;6.42;100.00;100949.78;5038387;28;20025;-69
2021/11/23 00:50:22;;;;;;;83.18;45.63;;;;;;;6.33;100.00;100945.03;5035905;28;20044;-69
2021/11/23 00:52:48;;;;;;;82.78;46.97;;;;;;;6.35;100.00;100948.44;5038325;28;20033;-68
2021/11/23 00:55:13;;;;;;;80.32;44.33;;;;;;;6.32;100.00;100950.47;5040338;28;20040;-69
2021/11/23 00:57:39;;;;;;;83.40;44.58;;;;;;;6.29;100.00;100951.47;5046259;28;20112;-69
2021/11/23 01:00:08;;;;;;;82.22;43.85;;;;;;;6.25;100.00;100957.09;5040341;28;20029;-69
2021/11/23 01:02:33;;;;;;;83.45;45.10;;;;;;;6.22;100.00;100962.59;5033580;28;20408;-69
2021/11/23 01:04:59;;;;;;;78.95;43.42;;;;;;;6.16;100.00;100968.31;5043758;28;20032;-69
2021/11/23 01:07:24;;;;;;;79.10;45.63;;;;;;;6.17;100.00;100975.34;5040620;28;20036;-69
2021/11/23 01:09:50;;;;;;;81.70;45.30;;;;;;;6.12;100.00;100967.63;5042906;28;20390;-69
2021/11/23 01:12:16;;;;;;;81.50;44.45;;;;;;;6.12;100.00;100980.94;5025216;28;20033;-69
2021/11/23 01:14:41;;;;;;;80.90;44.38;;;;;;;6.08;100.00;100987.41;5042937;28;20029;-69
2021/11/23 01:17:07;;;;;;;75.40;42.13;;;;;;;6.07;100.00;100990.16;5042984;28;20020;-69
2021/11/23 01:19:32;;;;;;;76.03;42.47;;;;;;;6.05;100.00;100997.34;5047138;28;20108;-69
2021/11/23 01:21:58;;;;;;;75.10;42.15;;;;;;;6.06;100.00;100999.09;5041084;28;20124;-69
2021/11/23 01:24:23;;;;;;;77.57;44.10;;;;;;;6.00;100.00;100986.97;5017525;28;20099;-70
2021/11/23 01:26:49;;;;;;;79.63;43.38;;;;;;;6.03;100.00;100991.28;5047028;28;20048;-69
2021/11/23 01:29:14;;;;;;;75.10;43.40;;;;;;;6.02;100.00;100987.75;5044909;28;20021;-69
2021/11/23 01:31:40;;;;;;;79.05;45.22;;;;;;;6.08;100.00;100997.19;5035375;28;20511;-69
2021/11/23 01:34:06;;;;;;;81.78;44.60;;;;;;;6.11;100.00;100997.00;5042265;28;20346;-69
2021/11/23 01:36:32;;;;;;;82.75;43.40;;;;;;;6.10;100.00;101004.13;5039932;28;20065;-69
2021/11/23 01:38:58;;;;;;;80.68;43.45;;;;;;;6.10;100.00;100997.97;5024898;28;20045;-69
2021/11/23 01:41:24;;;;;;;77.00;44.20;;;;;;;6.11;100.00;101003.19;5037239;28;20037;-69
2021/11/23 01:43:50;;;;;;;78.78;42.45;;;;;;;6.09;100.00;100999.75;5039452;28;20128;-69
2021/11/23 01:46:16;;;;;;;80.95;45.50;;;;;;;6.10;100.00;101001.47;5039289;28;20120;-69
2021/11/23 01:48:41;;;;;;;78.80;44.10;;;;;;;6.11;100.00;101003.19;5035091;28;20117;-67
2021/11/23 01:51:07;;;;;;;83.93;45.15;;;;;;;6.10;100.00;101006.78;5039350;28;20017;-69
2021/11/23 01:53:33;;;;;;;77.85;42.75;;;;;;;6.10;100.00;101011.28;5042596;28;20029;-68
2021/11/23 01:56:00;;;;;;;76.80;44.35;;;;;;;6.15;100.00;101015.38;5038677;28;20100;-68
2021/11/23 01:58:25;;;;;;;79.95;45.28;;;;;;;6.13;100.00;101013.75;5042900;28;20029;-68
2021/11/23 02:00:51;;;;;;;89.07;45.65;;;;;;;6.11;100.00;101021.84;5037524;28;20038;-68
2021/11/23 02:03:17;;;;;;;87.10;45.35;;;;;;;6.10;100.00;101017.44;5042671;28;20020;-68
2021/11/23 02:05:43;;;;;;;83.97;45.38;;;;;;;6.01;100.00;101006.47;5034198;28;20395;-68
2021/11/23 02:08:11;;;;;;;84.40;45.78;;;;;;;6.07;100.00;101014.13;5047239;28;20029;-68
2021/11/23 02:10:37;;;;;;;81.68;44.95;;;;;;;6.10;100.00;101011.28;5034197;28;20361;-68
2021/11/23 02:13:03;;;;;;;82.25;43.17;;;;;;;6.11;100.00;101016.50;5038852;28;20511;-68
2021/11/23 02:15:28;;;;;;;90.32;44.75;;;;;;;6.09;100.00;101018.41;5046361;28;20013;-69
2021/11/23 02:17:55;;;;;;;84.63;43.28;;;;;;;6.10;100.00;101024.59;5039230;28;20465;-68
2021/11/23 02:20:22;;;;;;;83.05;43.65;;;;;;;6.08;100.00;101018.47;5044586;28;20028;-68
2021/11/23 02:22:49;;;;;;;78.45;41.55;;;;;;;6.13;100.00;101027.06;5032965;28;20033;-68
2021/11/23 02:25:16;;;;;;;75.93;42.78;;;;;;;6.14;100.00;101018.13;5032508;28;20025;-68
2021/11/23 02:27:43;;;;;;;80.72;42.60;;;;;;;6.10;100.00;101021.94;5040588;28;20415;-69
2021/11/23 02:30:10;;;;;;;76.60;41.05;;;;;;;6.16;100.00;101022.41;5030848;28;20029;-69
2021/11/23 02:32:52;;;;;;;83.75;43.38;;;;;;;6.16;100.00;101017.06;5039105;28;20438;-69
2021/11/23 02:35:19;;;;;;;80.22;41.13;;;;;;;6.16;100.00;101027.72;5031828;28;20104;-69
2021/11/23 02:37:47;;;;;;;75.55;42.58;;;;;;;6.21;100.00;101020.34;5043919;28;20040;-69
2021/11/23 02:40:13;;;;;;;77.60;41.92;;;;;;;6.24;100.00;101029.97;5041849;28;20405;-70
2021/11/23 02:42:39;;;;;;;76.43;40.75;;;;;;;6.24;100.00;101024.63;5013737;28;20021;-69
2021/11/23 02:45:05;;;;;;;75.75;39.20;;;;;;;6.29;100.00;101036.72;5036217;28;20429;-69
2021/11/23 02:47:33;;;;;;;66.85;35.67;;;;;;;6.28;100.00;101032.34;5041311;28;20024;-69
2021/11/23 02:49:58;;;;;;;65.65;35.25;;;;;;;6.35;100.00;101032.84;5049164;28;20423;-69
2021/11/23 02:52:24;;;;;;;60.10;33.03;;;;;;;6.38;100.00;101041.50;5035769;28;20041;-69
2021/11/23 02:54:56;;;;;;;58.95;31.67;;;;;;;6.36;100.00;101039.91;5038835;28;20025;-69
2021/11/23 02:57:27;;;;;;;53.55;29.30;;;;;;;6.44;100.00;101037.63;5033668;28;20044;-69
2021/11/23 02:59:52;;;;;;;50.35;26.95;;;;;;;6.52;100.00;101051.38;5034208;28;20032;-70
2021/11/23 03:02:18;;;;;;;48.22;26.45;;;;;;;6.52;100.00;101049.53;5036468;28;20052;-69
2021/11/23 03:04:49;;;;;;;41.97;23.73;;;;;;;6.57;100.00;101046.59;5016369;28;20520;-69
2021/11/23 03:07:15;;;;;;;38.35;21.40;;;;;;;6.56;100.00;101048.44;5033979;28;20128;-69
2021/11/23 03:09:40;;;;;;;38.42;20.52;;;;;;;6.62;100.00;101056.03;5041779;28;20108;-69
2021/11/23 03:12:13;;;;;;;33.25;19.10;;;;;;;6.56;100.00;101043.09;5040691;28;20496;-69
2021/11/23 03:14:38;;;;;;;33.80;19.25;;;;;;;6.56;100.00;101048.44;5035492;28;20033;-69
2021/11/23 03:17:04;;;;;;;31.60;17.55;;;;;;;6.69;100.00;101064.53;5015249;28;20033;-69
2021/11/23 03:19:29;;;;;;;27.42;16.52;;;;;;;6.65;100.00;101053.19;5041100;28;20053;-69
2021/11/23 03:21:55;;;;;;;28.65;17.10;;;;;;;6.73;100.00;101064.25;5040538;28;20021;-69
2021/11/23 03:24:21;;;;;;;25.52;15.02;;;;;;;6.75;98.94;101070.34;5040554;28;20485;-69
2021/11/23 03:26:46;;;;;;;24.80;15.30;;;;;;;6.79;97.91;101063.91;5033152;28;20083;-69
2021/11/23 03:29:12;;;;;;;25.25;14.95;;;;;;;6.81;96.91;101067.31;5045580;28;20037;-69
2021/11/23 03:31:37;;;;;;;25.98;15.50;;;;;;;6.85;96.56;101068.00;5040565;28;20492;-69
2021/11/23 03:34:03;;;;;;;26.02;14.82;;;;;;;6.83;95.66;101059.22;5040679;28;20115;-69
2021/11/23 03:36:28;;;;;;;26.10;15.32;;;;;;;6.87;95.30;101063.44;5033914;28;20482;-69
2021/11/23 03:38:53;;;;;;;22.52;13.98;;;;;;;6.90;94.13;101058.75;5042018;28;20042;-69
2021/11/23 03:41:19;;;;;;;23.98;13.52;;;;;;;6.90;93.93;101055.22;5035146;28;20074;-69
2021/11/23 03:43:44;;;;;;;20.77;11.85;;;;;;;6.91;92.04;101051.63;5036348;28;20131;-69
2021/11/23 03:46:10;;;;;;;22.15;13.25;;;;;;;6.93;92.02;101045.22;5038508;28;20052;-69
2021/11/23 03:48:35;;;;;;;22.20;13.32;;;;;;;6.94;90.94;101043.44;5035405;28;20496;-69
2021/11/23 03:51:01;;;;;;;19.50;11.68;;;;;;;6.87;89.64;101039.44;5045135;28;20040;-69
2021/11/23 03:53:27;;;;;;;18.30;12.27;;;;;;;6.88;89.50;101043.81;5042617;28;20469;-69
2021/11/23 03:55:52;;;;;;;20.13;11.85;;;;;;;6.92;88.53;101051.53;5035931;28;20077;-69
2021/11/23 03:58:18;;;;;;;20.90;11.30;;;;;;;6.97;87.85;101057.41;5033425;28;20033;-69
2021/11/23 04:00:43;;;;;;;23.60;12.45;;;;;;;7.00;87.89;101057.25;5048226;28;20483;-69
2021/11/23 04:03:08;;;;;;;19.75;11.57;;;;;;;6.99;86.23;101058.19;5046829;28;20120;-69
2021/11/23 04:05:34;;;;;;;18.25;11.00;;;;;;;7.04;84.86;101072.09;5046865;28;20059;-69
2021/11/23 04:07:59;;;;;;;18.23;11.80;;;;;;;7.01;84.98;101063.44;5038900;28;20032;-69
2021/11/23 04:10:26;;;;;;;15.73;10.98;;;;;;;6.95;84.78;101055.81;5047409;28;20021;-69
2021/11/23 04:12:51;;;;;;;18.40;9.85;;;;;;;7.03;84.50;101072.19;5039612;28;20030;-69
2021/11/23 04:15:17;;;;;;;16.23;10.52;;;;;;;7.04;84.64;101076.59;5029562;28;20044;-69
2021/11/23 04:17:43;;;;;;;16.17;10.25;;;;;;;7.07;83.75;101080.88;5039588;28;20443;-69
2021/11/23 04:20:09;;;;;;;15.98;10.13;;;;;;;7.02;84.00;101078.47;5037436;28;20033;-69
2021/11/23 04:22:35;;;;;;;17.95;10.52;;;;;;;7.04;84.09;101081.94;5039231;28;20033;-69
2021/11/23 04:25:01;;;;;;;17.90;10.88;;;;;;;7.06;83.59;101085.34;5035929;28;20091;-69
2021/11/23 04:27:28;;;;;;;16.73;9.63;;;;;;;7.06;83.54;101085.34;5021467;28;20544;-69
2021/11/23 04:29:53;;;;;;;17.80;10.95;;;;;;;7.06;83.71;101089.84;5032035;28;20079;-69
2021/11/23 04:32:18;;;;;;;19.35;10.82;;;;;;;7.10;83.87;101091.34;5034277;28;20025;-69
2021/11/23 04:34:44;;;;;;;15.93;10.30;;;;;;;7.09;83.40;101093.16;5031147;28;20477;-69
2021/11/23 04:37:09;;;;;;;16.20;10.63;;;;;;;7.10;83.40;101092.22;5036070;28;20579;-69
2021/11/23 04:39:35;;;;;;;15.73;10.10;;;;;;;7.11;83.49;101090.38;5038542;28;20056;-69
2021/11/23 04:42:00;;;;;;;18.65;11.02;;;;;;;7.10;82.88;101094.03;5038830;28;20029;-69
2021/11/23 04:44:26;;;;;;;16.20;9.85;;;;;;;7.11;82.79;101093.94;5042849;28;20032;-69
2021/11/23 04:46:51;;;;;;;17.55;11.00;;;;;;;7.10;83.32;101096.69;5018183;28;20071;-69
2021/11/23 04:49:17;;;;;;;18.27;11.15;;;;;;;7.13;82.50;101101.84;5034127;28;20029;-69
2021/11/23 04:51:42;;;;;;;18.40;10.90;;;;;;;7.11;83.02;101098.41;5043817;28;20029;-69
2021/11/23 04:54:08;;;;;;;17.70;11.35;;;;;;;7.07;82.68;101099.53;5033164;28;20124;-69
2021/11/23 04:56:33;;;;;;;19.25;11.55;;;;;;;7.10;82.42;101107.34;5038560;28;20035;-69
2021/11/23 04:58:59;;;;;;;17.80;11.40;;;;;;;7.11;83.50;101109.06;5033309;28;20057;-70
2021/11/23 05:01:25;;;;;;;19.88;11.45;;;;;;;7.05;83.16;101102.28;5037338;28;20079;-69
2021/11/23 05:03:50;;;;;;;19.70;11.60;;;;;;;7.09;83.41;101122.50;5035143;28;20036;-69
2021/11/23 05:06:16;;;;;;;18.60;11.32;;;;;;;7.07;83.55;101119.91;5032701;28;20033;-69
2021/11/23 05:08:41;;;;;;;20.60;12.20;;;;;;;7.11;83.51;101125.06;5042726;28;20048;-69
2021/11/23 05:11:09;;;;;;;22.33;11.13;;;;;;;7.01;83.20;101119.44;5036701;28;20030;-69
2021/11/23 05:13:34;;;;;;;20.05;10.90;;;;;;;7.09;82.90;101127.81;5035267;28;20022;-69
2021/11/23 05:16:00;;;;;;;19.23;11.95;;;;;;;7.10;83.11;101142.03;5039899;28;20106;-69
2021/11/23 05:18:25;;;;;;;19.42;12.27;;;;;;;7.09;82.94;101148.31;5039504;28;20381;-69
2021/11/23 05:20:51;;;;;;;20.38;12.90;;;;;;;7.08;82.95;101155.47;5034417;28;20040;-69
2021/11/23 05:23:16;;;;;;;18.20;12.40;;;;;;;7.07;82.80;101159.91;5037578;28;20025;-68
2021/11/23 05:25:42;;;;;;;22.65;11.70;;;;;;;7.07;83.32;101157.25;5040797;28;20504;-69
2021/11/23 05:28:07;;;;;;;20.10;11.55;;;;;;;7.07;83.14;101147.53;5018587;28;20029;-69
2021/11/23 05:30:32;;;;;;;19.75;12.23;;;;;;;7.05;83.49;101158.31;5036166;28;20075;-69
2021/11/23 05:32:58;;;;;;;22.88;12.55;;;;;;;7.03;83.11;101162.03;5032743;28;20025;-69
2021/11/23 05:35:23;;;;;;;18.67;11.45;;;;;;;7.03;83.42;101161.06;5032723;28;20032;-69
2021/11/23 05:37:49;;;;;;;20.95;12.23;;;;;;;7.00;84.11;101166.59;5040587;28;20037;-68
2021/11/23 05:40:14;;;;;;;21.98;13.07;;;;;;;7.02;84.09;101171.00;5036577;28;20167;-68
2021/11/23 05:42:40;;;;;;;23.23;13.60;;;;;;;6.98;83.96;101178.28;5033292;28;20025;-68
2021/11/23 05:45:10;;;;;;;21.50;12.82;;;;;;;6.95;84.19;101171.34;5017121;28;20437;-68
2021/11/23 05:47:36;;;;;;;21.70;12.75;;;;;;;6.89;83.77;101169.03;5032554;28;20022;-68
2021/11/23 05:50:04;;;;;;;21.13;11.90;;;;;;;6.91;83.66;101176.94;5037893;28;20072;-69
2021/11/23 05:52:29;;;;;;;20.27;11.85;;;;;;;6.90;83.73;101173.41;5039957;28;20047;-69
2021/11/23 05:54:54;;;;;;;20.52;11.82;;;;;;;6.90;84.43;101185.88;5043817;28;20022;-69
2021/11/23 05:57:20;;;;;;;21.52;12.93;;;;;;;6.87;84.79;101186.91;5037671;28;20125;-68
2021/11/23 05:59:46;;;;;;;23.38;12.63;;;;;;;6.82;84.74;101181.03;5024946;28;20103;-71
2021/11/23 06:02:11;;;;;;;23.63;14.80;;;;;;;6.77;85.37;101180.41;5042112;28;20098;-69
2021/11/23 06:04:37;;;;;;;23.08;14.80;;;;;;;6.80;85.83;101195.38;5049782;28;20491;-69
2021/11/23 06:07:03;;;;;;;26.77;15.73;;;;;;;6.77;86.76;101196.41;5050300;28;20032;-69
2021/11/23 06:09:28;;;;;;;27.55;14.23;;;;;;;6.69;87.30;101197.81;5012570;28;20022;-69
2021/11/23 06:11:54;;;;;;;23.98;15.13;;;;;;;6.72;87.47;101210.97;5035714;28;20033;-69
2021/11/23 06:14:19;;;;;;;28.10;16.40;;;;;;;6.68;88.41;101212.94;5036822;28;20021;-69
2021/11/23 06:16:46;;;;;;;24.45;15.15;;;;;;;6.66;89.13;101219.31;5032312;28;20040;-69
2021/11/23 06:19:12;;;;;;;35.95;17.75;;;;;;;6.65;89.91;101222.94;5020831;28;20021;-69
2021/11/23 06:21:40;;;;;;;27.85;16.98;;;;;;;6.61;90.73;101230.22;5033449;28;20033;-69
2021/11/23 06:24:05;;;;;;;33.20;18.00;;;;;;;6.53;91.18;101229.81;5047622;28;20033;-69
2021/11/23 06:26:31;;;;;;;31.02;17.58;;;;;;;6.52;91.61;101233.41;5043144;28;20032;-69
2021/11/23 06:28:56;;;;;;;37.60;17.48;;;;;;;6.55;91.82;101238.56;5042541;28;20031;-69
2021/11/23 06:31:22;;;;;;;29.50;17.45;;;;;;;6.54;92.21;101239.53;5029905;28;20024;-69
2021/11/23 06:33:47;;;;;;;32.78;17.42;;;;;;;6.54;92.06;101244.84;5029947;28;20385;-69
2021/11/23 06:36:13;;;;;;;31.98;17.58;;;;;;;6.55;91.60;101259.88;5032945;28;20033;-69
2021/11/23 06:38:39;;;;;;;30.23;17.42;;;;;;;6.54;91.63;101258.19;5038809;28;20049;-68
2021/11/23 06:41:04;;;;;;;28.75;16.63;;;;;;;6.52;92.16;101248.56;5041797;28;20033;-69
2021/11/23 06:43:30;;;;;;;31.40;16.77;;;;;;;6.51;91.93;101253.03;5049287;28;20021;-69
2021/11/23 06:45:55;;;;;;;26.98;14.80;;;;;;;6.56;91.83;101256.31;5044045;28;20033;-69
2021/11/23 06:48:21;;;;;;;29.08;16.13;;;;;;;6.59;92.02;101261.47;5029183;28;20029;-69
2021/11/23 06:50:47;;;;;;;29.25;16.92;;;;;;;6.54;91.77;101267.97;5036857;28;20440;-69
2021/11/23 06:53:12;;;;;;;30.23;16.83;;;;;;;6.58;91.37;101267.72;5034119;28;20033;-69
2021/11/23 06:55:40;;;;;;;28.42;16.50;;;;;;;6.57;90.78;101262.47;5036758;28;20029;-68
2021/11/23 06:58:05;;;;;;;28.65;16.42;;;;;;;6.63;89.46;101273.66;5038568;28;20135;-69
2021/11/23 07:00:32;;;;;;;24.70;16.05;;;;;;;6.64;89.33;101264.72;5030994;28;20112;-69
2021/11/23 07:02:57;;;;;;;24.48;14.55;;;;;;;6.65;89.16;101282.41;5018907;28;20025;-69
2021/11/23 07:05:23;;;;;;;26.77;14.95;;;;;;;6.67;88.82;101280.53;5022226;28;20459;-68
2021/11/23 07:07:48;;;;;;;26.50;15.43;;;;;;;6.69;87.78;101286.66;5028723;28;20436;-69
2021/11/23 07:10:14;;;;;;;24.70;13.73;;;;;;;6.65;87.56;101271.75;5036435;28;20027;-69
2021/11/23 07:12:41;;;;;;;25.95;13.32;;;;;;;6.75;87.31;101288.09;5038503;28;20036;-69
2021/11/23 07:15:08;;;;;;;26.52;14.70;;;;;;;6.74;86.69;101287.22;5040376;28;20379;-69
2021/11/23 07:17:34;;;;;;;23.73;14.38;;;;;;;6.74;86.45;101292.56;5037321;28;20069;-69
2021/11/23 07:19:59;;;;;;;27.27;15.38;;;;;;;6.74;86.65;101294.38;5041354;28;20029;-69
2021/11/23 07:22:25;;;;;;;24.42;15.52;;;;;;;6.78;87.01;101296.75;5033292;28;20491;-69
2021/11/23 07:24:51;;;;;;;27.17;15.88;;;;;;;6.79;86.46;101301.16;5030237;28;20540;-69
2021/11/23 07:27:17;;;;;;;26.88;15.25;;;;;;;6.85;86.45;101294.63;5037868;28;20361;-69
2021/11/23 07:29:43;;;;;;;28.02;15.10;;;;;;;6.89;86.75;101298.81;5034754;28;20485;-69
2021/11/23 07:32:10;;;;;;;25.45;14.00;;;;;;;6.99;86.24;101308.00;5028197;28;20048;-69
2021/11/23 07:34:36;;;;;;;22.65;13.65;;;;;;;7.07;86.28;101314.63;5034181;28;20075;-69
2021/11/23 07:37:02;;;;;;;22.35;13.30;;;;;;;7.11;86.29;101307.31;5012915;28;20112;-69
2021/11/23 07:39:27;;;;;;;21.15;13.40;;;;;;;7.21;84.77;101307.63;5030828;28;20045;-69
2021/11/23 07:41:54;;;;;;;21.40;12.93;;;;;;;7.28;83.79;101307.19;5037878;28;20045;-69
2021/11/23 07:44:19;;;;;;;20.70;11.90;;;;;;;7.34;82.62;101313.97;5048171;28;20461;-69
2021/11/23 07:46:45;;;;;;;21.80;12.63;;;;;;;7.41;82.71;101312.69;5036532;28;20035;-69
2021/11/23 07:49:10;;;;;;;22.58;13.15;;;;;;;7.51;81.37;101313.84;5033200;28;20417;-66
2021/11/23 07:51:36;;;;;;;23.83;13.75;;;;;;;7.54;80.76;101313.69;5038978;28;20032;-67
2021/11/23 07:54:02;;;;;;;24.02;13.65;;;;;;;7.59;79.29;101308.91;5027969;28;20026;-66
2021/11/23 07:56:28;;;;;;;22.75;12.98;;;;;;;7.65;78.01;101313.88;5039485;28;20024;-67
2021/11/23 07:58:54;;;;;;;20.73;12.35;;;;;;;7.76;76.66;101322.97;5047969;28;20138;-67
2021/11/23 08:01:19;;;;;;;20.10;13.23;;;;;;;7.79;76.53;101321.91;5047763;28;20029;-67
2021/11/23 08:03:45;;;;;;;20.58;12.55;;;;;;;7.82;75.88;101316.38;5038465;28;20045;-66
2021/11/23 08:06:11;;;;;;;18.67;12.18;;;;;;;7.88;74.80;101322.22;5034164;28;20021;-67
2021/11/23 08:08:37;;;;;;;23.50;13.00;;;;;;;7.97;74.73;101331.50;5028467;28;20025;-67
2021/11/23 08:11:03;;;;;;;19.17;12.57;;;;;;;8.07;73.23;101325.50;5027750;28;20032;-67
2021/11/23 08:13:29;;;;;;;18.85;12.20;;;;;;;8.12;72.61;101334.06;5043329;28;20453;-67
2021/11/23 08:15:54;;;;;;;19.05;12.43;;;;;;;8.18;72.64;101338.19;5040541;28;20025;-67
2021/11/23 08:18:20;;;;;;;21.15;12.68;;;;;;;8.18;71.99;101340.84;5043228;28;20033;-67
2021/11/23 08:20:47;;;;;;;20.30;12.48;;;;;;;8.19;71.40;101348.78;5027277;28;20473;-67
2021/11/23 08:23:12;;;;;;;18.00;11.40;;;;;;;8.25;70.26;101342.22;5017647;28;20048;-67
2021/11/23 08:25:39;;;;;;;18.92;11.80;;;;;;;8.19;69.52;101329.22;5030662;28;20021;-68
2021/11/23 08:28:05;;;;;;;19.48;12.75;;;;;;;8.30;69.21;101341.00;5048278;28;20033;-67
2021/11/23 08:30:30;;;;;;;17.98;11.88;;;;;;;8.34;69.39;101350.53;5042045;28;20039;-67
2021/11/23 08:32:56;;;;;;;23.27;12.32;;;;;;;8.37;69.13;101342.34;5038764;28;20025;-67
2021/11/23 08:35:22;;;;;;;19.92;13.02;;;;;;;8.36;69.08;101324.59;5029106;28;20078;-67
2021/11/23 08:37:47;;;;;;;18.73;12.82;;;;;;;8.37;69.25;101320.94;5031004;28;20033;-67
2021/11/23 08:40:13;;;;;;;20.13;12.85;;;;;;;8.50;69.75;101332.59;5030810;28;20052;-67
2021/11/23 08:42:39;;;;;;;19.88;12.00;;;;;;;8.56;68.23;101342.03;5036777;28;20025;-68
2021/11/23 08:45:06;;;;;;;17.83;11.32;;;;;;;8.57;67.35;101344.59;5032825;28;20463;-67
2021/11/23 08:47:32;;;;;;;18.73;11.65;;;;;;;8.57;66.30;101352.63;5040650;28;20020;-67
2021/11/23 08:49:57;;;;;;;18.33;11.60;;;;;;;8.50;66.47;101340.59;5038180;28;20033;-68
2021/11/23 08:52:26;;;;;;;20.02;11.52;;;;;;;8.57;66.35;101349.09;5031256;28;20034;-68
2021/11/23 08:54:52;;;;;;;16.70;10.60;;;;;;;8.58;67.03;101362.34;5039549;28;20396;-67
2021/11/23 08:57:17;;;;;;;22.55;12.65;;;;;;;8.54;67.12;101350.16;5034600;28;20035;-68
2021/11/23 08:59:43;;;;;;;19.98;11.77;;;;;;;8.63;67.67;101372.75;5033635;28;20041;-68
2021/11/23 09:02:13;;;;;;;16.83;11.27;;;;;;;8.63;66.81;101362.06;5036207;28;20034;-67
2021/11/23 09:04:40;;;;;;;17.08;10.73;;;;;;;8.64;66.65;101369.16;5045202;28;20024;-67
2021/11/23 09:07:08;;;;;;;17.52;11.40;;;;;;;8.66;66.77;101372.56;5042231;28;20037;-67
2021/11/23 09:09:39;;;;;;;20.27;12.18;;;;;;;8.60;66.83;101360.47;5030308;28;20038;-67
2021/11/23 09:12:05;;;;;;;18.02;11.90;;;;;;;8.69;65.91;101370.59;5008901;28;20417;-67
2021/11/23 09:14:33;;;;;;;18.67;11.82;;;;;;;8.75;66.26;101388.91;5045892;28;20033;-67
2021/11/23 09:16:59;;;;;;;16.45;10.88;;;;;;;8.75;65.90;101372.00;5044063;28;20052;-66
2021/11/23 09:19:26;;;;;;;19.20;11.80;;;;;;;8.73;66.17;101369.44;5049565;28;20477;-67
2021/11/23 09:21:52;;;;;;;19.50;12.07;;;;;;;8.74;67.05;101373.81;5030070;28;20055;-67
2021/11/23 09:24:18;;;;;;;18.25;12.25;;;;;;;8.76;67.13;101376.38;5048187;28;20053;-66
2021/11/23 09:26:47;;;;;;;17.48;11.30;;;;;;;8.76;66.68;101366.56;5044216;28;20064;-67
2021/11/23 09:29:14;;;;;;;19.83;11.45;;;;;;;8.85;66.35;101370.47;5036890;28;20025;-67
2021/11/23 09:31:40;;;;;;;17.92;11.68;;;;;;;8.86;67.13;101366.81;5030587;28;20519;-67
2021/11/23 09:34:06;;;;;;;18.75;12.40;;;;;;;9.02;66.94;101373.75;5047915;28;20032;-67
2021/11/23 09:36:31;;;;;;;19.75;12.07;;;;;;;9.08;66.33;101357.31;5040278;28;20029;-67
2021/11/23 09:38:57;;;;;;;18.30;12.05;;;;;;;9.17;65.84;101364.75;5027063;28;20049;-67
2021/11/23 09:41:22;;;;;;;19.15;11.35;;;;;;;9.20;64.53;101361.00;5034614;28;20025;-67
2021/11/23 09:43:48;;;;;;;16.45;11.43;;;;;;;9.29;64.55;101369.28;5038327;28;20033;-67
2021/11/23 09:46:13;;;;;;;20.48;11.88;;;;;;;9.31;64.24;101363.00;5040008;28;20033;-67
2021/11/23 09:48:41;;;;;;;18.90;12.48;;;;;;;9.39;63.73;101371.34;5030081;28;20029;-67
2021/11/23 09:51:17;;;;;;;17.50;12.02;;;;;;;9.38;63.50;101353.59;5031512;28;20504;-67
2021/11/23 09:53:43;;;;;;;16.50;11.77;;;;;;;9.52;63.60;101361.53;5033741;28;20048;-67
2021/11/23 09:56:09;;;;;;;18.77;12.32;;;;;;;9.66;61.40;101362.34;5031261;28;20385;-67
2021/11/23 09:58:35;;;;;;;18.95;11.18;;;;;;;9.67;61.29;101360.53;5039847;28;20029;-67
2021/11/23 10:01:07;;;;;;;18.42;12.13;;;;;;;9.74;60.82;101362.66;5037179;28;20083;-67
2021/11/23 10:03:33;;;;;;;18.67;12.15;;;;;;;9.78;60.74;101366.00;5034029;28;20477;-67
2021/11/23 10:06:09;;;;;;;19.02;12.32;;;;;;;9.73;60.88;101368.13;5035052;28;20055;-67
2021/11/23 10:08:36;;;;;;;17.75;11.63;;;;;;;9.59;60.87;101355.69;5039999;28;20544;-70
2021/11/23 10:11:02;;;;;;;16.70;11.30;;;;;;;9.66;60.86;101366.81;5037312;28;20392;-70
2021/11/23 10:13:49;;;;;;;17.02;11.05;;;;;;;9.61;60.25;101358.25;5037364;28;20025;-69
2021/11/23 10:16:16;;;;;;;18.77;11.48;;;;;;;9.55;60.83;101359.53;5045957;28;20079;-69
2021/11/23 10:18:43;;;;;;;18.15;10.32;;;;;;;9.58;60.51;101355.78;5035621;28;20106;-69
2021/11/23 10:21:11;;;;;;;16.10;12.02;;;;;;;9.57;60.08;101357.59;5031556;28;20593;-70
2021/11/23 10:23:42;;;;;;;17.77;12.23;;;;;;;9.59;61.05;101357.50;5042495;28;20052;-70
2021/11/23 10:26:14;;;;;;;16.13;10.90;;;;;;;9.59;60.39;101350.31;5041414;28;20044;-70
2021/11/23 10:28:48;;;;;;;16.92;11.07;;;;;;;9.61;60.19;101355.59;5049208;28;20024;-70
2021/11/23 10:31:15;;;;;;;16.35;11.05;;;;;;;9.61;60.21;101344.88;5044167;28;20396;-70
2021/11/23 10:33:42;;;;;;;16.20;11.15;;;;;;;9.65;61.20;101344.56;5041518;28;20040;-70
2021/11/23 10:36:11;;;;;;;20.08;12.50;;;;;;;9.67;59.94;101350.66;5037154;28;20051;-70
2021/11/23 10:38:38;;;;;;;17.88;12.02;;;;;;;9.67;59.74;101339.09;5036894;28;20045;-69
2021/11/23 10:41:10;;;;;;;21.13;13.45;;;;;;;9.73;60.40;101334.16;5029062;28;20056;-70
2021/11/23 10:43:38;;;;;;;20.50;13.75;;;;;;;9.76;59.65;101346.47;5036740;28;20061;-69
2021/11/23 10:46:10;;;;;;;21.50;13.20;;;;;;;9.73;59.95;101327.94;5013452;28;20029;-69
2021/11/23 10:48:36;;;;;;;21.27;13.80;;;;;;;9.74;60.32;101318.97;5040857;28;20360;-69
2021/11/23 10:51:09;;;;;;;27.67;16.05;;;;;;;9.86;60.28;101326.16;5017265;28;20031;-70
2021/11/23 10:53:36;;;;;;;23.00;14.27;;;;;;;9.92;58.88;101329.25;5023939;28;20025;-69
2021/11/23 10:56:13;;;;;;;18.20;12.13;;;;;;;9.95;58.54;101331.72;5036566;28;20029;-70
2021/11/23 10:58:40;;;;;;;16.95;11.40;;;;;;;9.97;58.08;101329.81;5034499;28;20025;-69
2021/11/23 11:01:07;;;;;;;17.48;11.95;;;;;;;9.92;58.05;101317.69;5042371;28;20033;-70
2021/11/23 11:03:34;;;;;;;20.30;12.25;;;;;;;9.96;58.18;101322.72;5047140;28;20376;-70
2021/11/23 11:06:02;;;;;;;17.73;12.65;;;;;;;9.93;57.38;101320.25;5039090;28;20555;-69
2021/11/23 11:08:33;;;;;;;18.95;12.30;;;;;;;9.97;57.70;101320.91;5039271;28;20432;-70
2021/11/23 11:10:59;;;;;;;20.85;12.43;;;;;;;9.88;58.55;101295.63;5034354;28;20505;-71